Time;durP1;ratioP1;P1;durP2;ratioP2;P2;SDS_P1;SDS_P2;PMS_P1;PMS_P2;Temp;Humidity;BMP_temperature;BMP_pressure;BME280_temperature;BME280_humidity;BME280_pressure;Samples;Min_cycle;Max_cycle;Signal;HPM_P1;HPM_P2
2023/10/06 00:01:49;;;;;;;27.48;8.10;;;;;;;;;;5135188;27;20096;-66
2023/10/06 00:04:18;;;;;;;26.67;7.75;;;;;;;;;;5135634;27;20408;-67
2023/10/06 00:06:45;;;;;;;32.63;8.07;;;;;;;;;;5116941;27;20082;-66
2023/10/06 00:09:28;;;;;;;29.95;8.95;;;;;;;;;;5134897;27;20128;-66
2023/10/06 00:11:54;;;;;;;27.88;8.88;;;;;;;;;;5135469;27;20047;-67
2023/10/06 00:15:09;;;;;;;28.83;9.43;;;;;;;;;;5116813;27;20433;-67
2023/10/06 00:17:11;;;;;;;35.88;9.10;;;;;;;;;;5102081;27;20486;-68
2023/10/06 00:19:39;;;;;;;33.92;9.13;;;;;;;;;;5135040;27;20134;-67
2023/10/06 00:22:39;;;;;;;30.83;10.05;;;;;;;;;;5134655;27;20122;-67
2023/10/06 00:24:59;;;;;;;34.58;10.35;;;;;;;;;;5132727;27;20069;-68
2023/10/06 00:27:29;;;;;;;30.52;9.73;;;;;;;;;;5134728;27;20043;-67
2023/10/06 00:29:56;;;;;;;35.92;10.18;;;;;;;;;;5134610;27;20050;-67
2023/10/06 00:32:28;;;;;;;30.13;10.13;;;;;;;;;;5134344;27;20043;-66
2023/10/06 00:34:55;;;;;;;30.95;11.07;;;;;;;;;;5134978;27;20043;-67
2023/10/06 00:37:22;;;;;;;29.77;10.63;;;;;;;;;;5134343;27;20074;-68
2023/10/06 00:39:50;;;;;;;32.72;11.15;;;;;;;;;;5134377;27;20104;-66
2023/10/06 00:42:19;;;;;;;29.05;10.57;;;;;;;;;;5133648;27;20112;-67
2023/10/06 00:44:46;;;;;;;34.38;10.32;;;;;;;;;;5134526;27;20394;-66
2023/10/06 00:47:13;;;;;;;;;;;;;;;;;;5134613;27;20055;-67
2023/10/06 00:49:39;;;;;;;39.83;10.93;;;;;;;;;;5116190;28;19919;-66
2023/10/06 00:52:06;;;;;;;34.15;11.45;;;;;;;;;;5134315;28;20432;-67
2023/10/06 00:54:32;;;;;;;;;;;;;;;;;;5134869;28;20092;-67
2023/10/06 00:57:08;;;;;;;32.87;10.57;;;;;;;;;;5134346;28;19920;-66
2023/10/06 00:59:35;;;;;;;41.30;11.80;;;;;;;;;;5134962;28;20051;-67
2023/10/06 01:02:01;;;;;;;;;;;;;;;;;;5134533;28;20100;-66
2023/10/06 01:04:33;;;;;;;34.53;11.07;;;;;;;;;;5134160;28;19919;-66
2023/10/06 01:07:00;;;;;;;36.50;11.35;;;;;;;;;;5134224;28;20047;-67
2023/10/06 01:09:35;;;;;;;35.95;11.57;;;;;;;;;;5134775;28;20409;-67
2023/10/06 01:12:05;;;;;;;36.78;11.48;;;;;;;;;;5134103;28;20042;-68
2023/10/06 01:14:34;;;;;;;33.58;11.38;;;;;;;;;;5134018;28;20043;-68
2023/10/06 01:17:16;;;;;;;39.75;12.02;;;;;;;;;;5134084;28;20477;-68
2023/10/06 01:19:50;;;;;;;36.60;12.27;;;;;;;;;;5116045;28;20043;-66
2023/10/06 01:22:24;;;;;;;41.45;12.02;;;;;;;;;;5133980;28;20099;-67
2023/10/06 01:24:53;;;;;;;37.30;11.65;;;;;;;;;;5133961;28;20051;-67
2023/10/06 01:27:20;;;;;;;39.55;11.73;;;;;;;;;;5134092;28;20039;-68
2023/10/06 01:29:51;;;;;;;38.22;12.55;;;;;;;;;;5134242;28;20562;-66
2023/10/06 01:32:17;;;;;;;38.78;12.27;;;;;;;;;;5134066;28;20046;-67
2023/10/06 01:34:44;;;;;;;38.45;12.05;;;;;;;;;;5133864;28;20050;-67
2023/10/06 01:37:11;;;;;;;41.53;12.95;;;;;;;;;;5133818;28;20051;-71
2023/10/06 01:39:37;;;;;;;44.83;10.90;;;;;;;;;;5134004;28;20043;-67
2023/10/06 01:42:04;;;;;;;42.53;13.07;;;;;;;;;;5133975;28;20043;-66
2023/10/06 01:44:31;;;;;;;34.35;11.55;;;;;;;;;;5115788;28;20051;-67
2023/10/06 01:46:58;;;;;;;42.58;11.25;;;;;;;;;;5133741;28;20055;-69
2023/10/06 01:49:25;;;;;;;46.13;12.02;;;;;;;;;;5133804;28;20047;-67
2023/10/06 01:51:51;;;;;;;38.00;11.55;;;;;;;;;;5134185;28;20463;-66
2023/10/06 01:54:18;;;;;;;38.05;11.10;;;;;;;;;;5135966;27;20086;-68
2023/10/06 01:56:45;;;;;;;;;;;;;;;;;;5119869;27;20387;-66
2023/10/06 01:59:14;;;;;;;34.50;9.88;;;;;;;;;;5137521;27;19972;-67
2023/10/06 02:01:44;;;;;;;36.30;10.35;;;;;;;;;;5137416;27;20402;-67
2023/10/06 02:04:11;;;;;;;38.58;11.43;;;;;;;;;;5137393;27;20043;-67
2023/10/06 02:06:48;;;;;;;37.90;10.48;;;;;;;;;;5138088;27;20112;-67
2023/10/06 02:09:18;;;;;;;31.15;10.27;;;;;;;;;;5120067;27;20047;-66
2023/10/06 02:11:49;;;;;;;37.30;11.05;;;;;;;;;;5137255;27;20039;-68
2023/10/06 02:14:18;;;;;;;39.72;11.40;;;;;;;;;;5137191;27;20043;-67
2023/10/06 02:16:45;;;;;;;39.10;11.35;;;;;;;;;;5118742;27;20043;-66
2023/10/06 02:19:16;;;;;;;38.78;10.52;;;;;;;;;;5118900;27;20054;-68
2023/10/06 02:21:42;;;;;;;38.47;11.70;;;;;;;;;;5137378;27;20051;-67
2023/10/06 02:24:09;;;;;;;38.80;10.88;;;;;;;;;;5137846;27;20046;-67
2023/10/06 02:26:36;;;;;;;48.22;11.88;;;;;;;;;;5136856;27;20139;-68
2023/10/06 02:29:07;;;;;;;33.58;9.57;;;;;;;;;;5101790;27;20092;-66
2023/10/06 02:31:35;;;;;;;50.28;10.20;;;;;;;;;;5137373;27;20051;-67
2023/10/06 02:34:01;;;;;;;41.03;10.35;;;;;;;;;;5137090;27;20047;-67
2023/10/06 02:36:28;;;;;;;38.92;11.38;;;;;;;;;;5137269;27;20046;-67
2023/10/06 02:38:54;;;;;;;36.80;10.75;;;;;;;;;;5136689;27;20057;-66
2023/10/06 02:41:25;;;;;;;35.13;10.80;;;;;;;;;;5118335;27;20391;-71
2023/10/06 02:43:52;;;;;;;42.50;11.63;;;;;;;;;;5137148;27;20078;-66
2023/10/06 02:46:23;;;;;;;43.65;11.25;;;;;;;;;;5101409;27;20066;-67
2023/10/06 02:48:50;;;;;;;37.08;9.82;;;;;;;;;;5136573;27;20076;-67
2023/10/06 02:51:18;;;;;;;38.15;10.55;;;;;;;;;;5119161;27;20477;-66
2023/10/06 02:53:50;;;;;;;39.67;11.25;;;;;;;;;;5118038;27;20055;-66
2023/10/06 02:56:18;;;;;;;40.00;11.45;;;;;;;;;;5137017;27;20054;-66
2023/10/06 02:58:46;;;;;;;39.45;10.18;;;;;;;;;;5136624;27;20050;-66
2023/10/06 03:01:14;;;;;;;37.45;10.98;;;;;;;;;;5136519;27;20375;-65
2023/10/06 03:03:40;;;;;;;38.05;11.52;;;;;;;;;;5136166;27;20095;-67
2023/10/06 03:06:09;;;;;;;40.05;12.02;;;;;;;;;;5117287;27;20043;-67
2023/10/06 03:08:35;;;;;;;38.90;11.65;;;;;;;;;;5117678;27;20039;-66
2023/10/06 03:11:01;;;;;;;33.65;11.00;;;;;;;;;;5117656;27;20049;-67
2023/10/06 03:13:36;;;;;;;36.17;11.65;;;;;;;;;;5117549;27;20079;-68
2023/10/06 03:16:10;;;;;;;45.08;11.30;;;;;;;;;;5136518;27;20069;-65
2023/10/06 03:18:36;;;;;;;38.00;10.90;;;;;;;;;;5136414;27;20078;-67
2023/10/06 03:21:13;;;;;;;30.27;9.90;;;;;;;;;;5135853;27;20130;-67
2023/10/06 03:23:39;;;;;;;37.03;10.80;;;;;;;;;;5136173;27;20053;-66
2023/10/06 03:26:25;;;;;;;42.67;11.37;;;;;;;;;;5136257;27;20043;-68
2023/10/06 03:28:53;;;;;;;32.05;10.02;;;;;;;;;;5135372;27;20487;-67
2023/10/06 03:33:46;;;;;;;37.88;9.55;;;;;;;;;;5135564;27;20047;-67
2023/10/06 03:36:16;;;;;;;37.53;9.55;;;;;;;;;;5135521;27;20051;-67
2023/10/06 03:38:57;;;;;;;37.13;10.57;;;;;;;;;;5135827;27;20058;-65
2023/10/06 03:41:32;;;;;;;40.05;10.45;;;;;;;;;;5135887;27;20465;-66
2023/10/06 03:44:03;;;;;;;33.67;10.00;;;;;;;;;;5117715;27;20050;-68
2023/10/06 03:46:36;;;;;;;45.05;10.00;;;;;;;;;;5116966;27;20047;-70
2023/10/06 03:49:03;;;;;;;35.75;10.07;;;;;;;;;;5135459;27;20047;-66
2023/10/06 03:51:30;;;;;;;32.95;8.93;;;;;;;;;;5135218;27;20125;-66
2023/10/06 03:53:58;;;;;;;33.45;10.10;;;;;;;;;;5135359;27;20125;-67
2023/10/06 03:56:24;;;;;;;40.97;10.35;;;;;;;;;;5135734;27;20378;-68
2023/10/06 03:58:50;;;;;;;42.17;10.00;;;;;;;;;;5135203;27;20096;-67
2023/10/06 04:01:19;;;;;;;42.67;10.45;;;;;;;;;;5135148;27;20047;-68
2023/10/06 04:03:47;;;;;;;33.70;10.18;;;;;;;;;;5134877;27;20104;-67
2023/10/06 04:06:12;;;;;;;;;;;;;;;;;;5136157;27;20379;-68
2023/10/06 04:08:40;;;;;;;32.63;8.73;;;;;;;;;;5134869;27;19926;-67
2023/10/06 04:11:07;;;;;;;35.88;10.15;;;;;;;;;;5134938;27;20083;-65
2023/10/06 04:13:33;;;;;;;32.47;8.90;;;;;;;;;;5134766;27;20039;-66
2023/10/06 04:15:59;;;;;;;33.60;9.88;;;;;;;;;;5134799;27;20054;-68
2023/10/06 04:18:25;;;;;;;30.20;8.65;;;;;;;;;;5133804;27;20086;-67
2023/10/06 04:20:52;;;;;;;30.80;9.50;;;;;;;;;;5134838;27;20051;-67
2023/10/06 04:23:22;;;;;;;35.35;9.40;;;;;;;;;;5134670;27;20098;-67
2023/10/06 04:25:49;;;;;;;43.30;9.85;;;;;;;;;;5116104;27;20043;-66
2023/10/06 04:28:16;;;;;;;;;;;;;;;;;;5116609;27;20082;-67
2023/10/06 04:30:45;;;;;;;37.90;9.95;;;;;;;;;;5134452;27;19919;-67
2023/10/06 04:33:11;;;;;;;34.58;10.20;;;;;;;;;;5134357;27;20039;-67
2023/10/06 04:35:47;;;;;;;35.83;10.00;;;;;;;;;;5135259;27;20371;-67
2023/10/06 04:38:14;;;;;;;36.55;9.57;;;;;;;;;;5135374;27;20140;-67
2023/10/06 04:40:43;;;;;;;37.83;11.23;;;;;;;;;;5134431;27;20391;-67
2023/10/06 04:43:09;;;;;;;39.75;10.13;;;;;;;;;;5134488;27;20047;-66
2023/10/06 04:45:38;;;;;;;34.53;9.82;;;;;;;;;;5135035;27;20054;-66
2023/10/06 04:48:07;;;;;;;42.25;10.75;;;;;;;;;;5116076;28;20059;-66
2023/10/06 04:50:34;;;;;;;41.90;9.82;;;;;;;;;;5116173;28;20051;-66
2023/10/06 04:53:06;;;;;;;40.20;11.00;;;;;;;;;;5116439;28;20047;-66
2023/10/06 04:55:37;;;;;;;38.38;9.65;;;;;;;;;;5099709;28;20047;-66
2023/10/06 04:58:05;;;;;;;42.35;10.90;;;;;;;;;;5134153;28;20090;-66
2023/10/06 05:00:33;;;;;;;40.92;9.90;;;;;;;;;;5134250;28;20051;-67
2023/10/06 05:02:59;;;;;;;36.10;10.77;;;;;;;;;;5099122;28;20451;-66
2023/10/06 05:05:26;;;;;;;41.90;10.70;;;;;;;;;;5134189;28;20054;-66
2023/10/06 05:07:53;;;;;;;39.33;10.32;;;;;;;;;;5115866;28;20292;-67
2023/10/06 05:10:21;;;;;;;32.35;10.82;;;;;;;;;;5115816;28;20043;-67
2023/10/06 05:12:48;;;;;;;44.55;10.27;;;;;;;;;;5115508;28;20467;-66
2023/10/06 05:15:23;;;;;;;42.30;11.50;;;;;;;;;;5134535;28;20046;-67
2023/10/06 05:17:55;;;;;;;36.50;11.02;;;;;;;;;;5116210;28;20055;-67
2023/10/06 05:20:21;;;;;;;34.13;8.38;;;;;;;;;;5116160;28;20130;-67
2023/10/06 05:22:48;;;;;;;44.95;10.30;;;;;;;;;;5133763;28;20039;-67
2023/10/06 05:25:15;;;;;;;;;;;;;;;;;;5099271;28;20122;-67
2023/10/06 05:27:42;;;;;;;35.00;10.15;;;;;;;;;;5133521;28;20315;-66
2023/10/06 05:30:09;;;;;;;35.95;9.02;;;;;;;;;;5137059;27;20375;-66
2023/10/06 05:32:41;;;;;;;39.80;10.23;;;;;;;;;;5138349;27;20086;-66
2023/10/06 05:35:08;;;;;;;37.67;9.68;;;;;;;;;;5137718;27;20058;-67
2023/10/06 05:37:34;;;;;;;39.50;10.23;;;;;;;;;;5137662;27;20047;-66
2023/10/06 05:40:00;;;;;;;31.37;9.90;;;;;;;;;;5085833;27;20051;-67
2023/10/06 05:42:26;;;;;;;41.50;10.52;;;;;;;;;;5102515;27;20051;-65
2023/10/06 05:44:54;;;;;;;36.70;10.20;;;;;;;;;;5137607;27;20057;-66
2023/10/06 05:47:21;;;;;;;38.17;10.40;;;;;;;;;;5137642;27;20134;-67
2023/10/06 05:49:49;;;;;;;39.85;10.63;;;;;;;;;;5138189;27;20136;-70
2023/10/06 05:52:16;;;;;;;45.50;11.77;;;;;;;;;;5137773;27;20043;-67
2023/10/06 05:54:42;;;;;;;44.22;10.98;;;;;;;;;;5119727;27;20094;-66
2023/10/06 05:57:09;;;;;;;48.92;11.23;;;;;;;;;;5137437;27;20055;-67
2023/10/06 05:59:36;;;;;;;46.25;11.35;;;;;;;;;;5137446;27;20047;-66
2023/10/06 06:02:04;;;;;;;35.95;9.95;;;;;;;;;;5119368;27;20043;-66
2023/10/06 06:04:34;;;;;;;43.42;10.75;;;;;;;;;;5119207;27;20410;-67
2023/10/06 06:07:03;;;;;;;36.38;9.88;;;;;;;;;;5136926;27;20348;-65
2023/10/06 06:09:33;;;;;;;37.55;10.13;;;;;;;;;;5136935;27;20043;-66
2023/10/06 06:12:02;;;;;;;42.58;11.13;;;;;;;;;;5119149;27;20047;-65
2023/10/06 06:14:28;;;;;;;37.55;10.50;;;;;;;;;;5137150;27;20042;-65
2023/10/06 06:16:55;;;;;;;29.70;10.33;;;;;;;;;;5119507;27;20047;-66
2023/10/06 06:19:22;;;;;;;42.30;11.18;;;;;;;;;;5118872;27;20066;-66
2023/10/06 06:21:49;;;;;;;42.72;10.73;;;;;;;;;;5136818;27;20445;-66
2023/10/06 06:24:20;;;;;;;45.25;9.35;;;;;;;;;;5119113;27;20086;-65
2023/10/06 06:26:46;;;;;;;43.58;10.43;;;;;;;;;;5136788;27;20055;-67
2023/10/06 06:29:12;;;;;;;41.53;9.87;;;;;;;;;;5136691;27;20403;-65
2023/10/06 06:31:38;;;;;;;40.37;10.20;;;;;;;;;;5137122;27;20435;-66
2023/10/06 06:34:04;;;;;;;40.22;10.10;;;;;;;;;;5136570;27;20082;-66
2023/10/06 06:36:33;;;;;;;39.50;9.67;;;;;;;;;;5136214;27;20479;-67
2023/10/06 06:39:00;;;;;;;30.30;8.68;;;;;;;;;;5136734;27;20312;-67
2023/10/06 06:41:26;;;;;;;39.60;10.23;;;;;;;;;;5118066;27;20063;-66
2023/10/06 06:43:58;;;;;;;34.92;10.00;;;;;;;;;;5118136;27;20061;-66
2023/10/06 06:46:26;;;;;;;37.45;8.93;;;;;;;;;;5136435;27;20070;-66
2023/10/06 06:48:53;;;;;;;37.63;9.85;;;;;;;;;;5136012;27;20122;-66
2023/10/06 06:51:20;;;;;;;40.50;10.18;;;;;;;;;;5118026;27;20050;-66
2023/10/06 06:53:47;;;;;;;40.17;9.35;;;;;;;;;;5136270;27;20047;-65
2023/10/06 06:56:13;;;;;;;38.58;9.07;;;;;;;;;;5118027;27;20073;-67
2023/10/06 06:58:39;;;;;;;37.17;11.33;;;;;;;;;;5117970;27;20047;-68
2023/10/06 07:01:07;;;;;;;37.00;9.70;;;;;;;;;;5136227;27;20487;-66
2023/10/06 07:03:33;;;;;;;36.42;9.75;;;;;;;;;;5136245;27;20277;-66
2023/10/06 07:06:00;;;;;;;44.53;9.27;;;;;;;;;;5117922;27;20043;-66
2023/10/06 07:08:27;;;;;;;29.35;9.73;;;;;;;;;;5136791;27;20051;-66
2023/10/06 07:10:53;;;;;;;32.33;9.23;;;;;;;;;;5136752;27;20130;-66
2023/10/06 07:13:22;;;;;;;29.40;8.70;;;;;;;;;;5135543;27;20502;-66
2023/10/06 07:15:53;;;;;;;44.00;9.98;;;;;;;;;;5117713;27;20826;-66
2023/10/06 07:18:19;;;;;;;41.10;10.15;;;;;;;;;;5135887;27;20058;-67
2023/10/06 07:20:46;;;;;;;36.87;9.57;;;;;;;;;;5136037;27;20082;-67
2023/10/06 07:23:12;;;;;;;32.03;9.27;;;;;;;;;;5118080;27;20048;-67
2023/10/06 07:25:39;;;;;;;34.15;9.25;;;;;;;;;;5117461;27;20089;-66
2023/10/06 07:28:06;;;;;;;37.10;10.25;;;;;;;;;;5117354;27;20386;-67
2023/10/06 07:30:35;;;;;;;31.23;10.23;;;;;;;;;;5135462;27;20039;-68
2023/10/06 07:33:03;;;;;;;40.03;10.43;;;;;;;;;;5100902;27;20150;-67
2023/10/06 07:35:37;;;;;;;39.97;9.25;;;;;;;;;;5135564;27;20483;-66
2023/10/06 07:38:03;;;;;;;45.08;11.93;;;;;;;;;;5118044;27;20047;-70
2023/10/06 07:40:29;;;;;;;39.00;10.97;;;;;;;;;;5117621;27;20039;-67
2023/10/06 07:42:55;;;;;;;35.88;9.77;;;;;;;;;;5135772;27;20276;-66
2023/10/06 07:45:21;;;;;;;37.20;9.07;;;;;;;;;;5135359;27;20073;-67
2023/10/06 07:47:48;;;;;;;41.38;10.40;;;;;;;;;;5134747;27;20094;-66
2023/10/06 07:50:15;;;;;;;39.28;10.65;;;;;;;;;;5117005;27;20066;-68
2023/10/06 07:52:41;;;;;;;33.95;10.38;;;;;;;;;;5116668;27;20043;-69
2023/10/06 07:55:09;;;;;;;39.85;11.30;;;;;;;;;;5100179;27;20047;-66
2023/10/06 07:57:45;;;;;;;31.27;9.50;;;;;;;;;;5117450;27;20050;-67
2023/10/06 08:00:12;;;;;;;41.25;9.57;;;;;;;;;;5135643;27;20050;-66
2023/10/06 08:02:41;;;;;;;37.13;10.18;;;;;;;;;;5135183;27;20047;-67
2023/10/06 08:05:11;;;;;;;39.03;10.07;;;;;;;;;;5134940;27;20043;-66
2023/10/06 08:07:38;;;;;;;34.13;10.80;;;;;;;;;;5117698;27;20463;-65
2023/10/06 08:10:05;;;;;;;;;;;;;;;;;;5117028;27;20053;-66
2023/10/06 08:12:33;;;;;;;41.03;11.00;;;;;;;;;;5116684;27;19925;-66
2023/10/06 08:15:09;;;;;;;39.20;10.05;;;;;;;;;;5135350;27;20058;-68
2023/10/06 08:17:35;;;;;;;46.65;10.18;;;;;;;;;;5136093;27;20086;-68
2023/10/06 08:20:01;;;;;;;45.50;11.20;;;;;;;;;;5136864;27;20125;-66
2023/10/06 08:22:29;;;;;;;37.38;12.00;;;;;;;;;;5137392;27;20039;-66
2023/10/06 08:24:55;;;;;;;45.35;11.13;;;;;;;;;;5134873;27;20047;-68
2023/10/06 08:27:23;;;;;;;43.58;11.55;;;;;;;;;;5134756;27;20398;-67
2023/10/06 08:29:51;;;;;;;39.65;11.35;;;;;;;;;;5134597;27;20092;-66
2023/10/06 08:32:18;;;;;;;32.40;9.15;;;;;;;;;;5134387;27;20043;-68
2023/10/06 08:34:46;;;;;;;;;;;;;;;;;;5116743;27;20043;-67
2023/10/06 08:37:14;;;;;;;39.55;11.55;;;;;;;;;;5134958;27;19920;-68
2023/10/06 08:39:40;;;;;;;36.20;10.70;;;;;;;;;;5134964;27;20047;-69
2023/10/06 08:42:14;;;;;;;46.35;11.65;;;;;;;;;;5135015;27;20043;-66
2023/10/06 08:44:40;;;;;;;40.58;11.18;;;;;;;;;;5134685;27;20047;-66
2023/10/06 08:47:10;;;;;;;45.70;12.60;;;;;;;;;;5134433;27;20090;-67
2023/10/06 08:49:48;;;;;;;42.88;13.13;;;;;;;;;;5116044;28;20100;-67
2023/10/06 08:52:17;;;;;;;49.08;12.70;;;;;;;;;;5134537;27;20475;-67
2023/10/06 08:54:45;;;;;;;45.88;12.55;;;;;;;;;;5134239;28;20062;-68
2023/10/06 08:57:11;;;;;;;42.35;12.50;;;;;;;;;;5116913;28;20375;-66
2023/10/06 08:59:39;;;;;;;51.95;11.75;;;;;;;;;;5116113;28;20051;-67
2023/10/06 09:02:05;;;;;;;48.33;13.15;;;;;;;;;;5099139;28;20039;-67
2023/10/06 09:04:35;;;;;;;43.33;12.63;;;;;;;;;;5119149;27;20046;-67
2023/10/06 09:07:08;;;;;;;41.38;12.40;;;;;;;;;;5120633;27;20306;-67
2023/10/06 09:09:34;;;;;;;50.70;12.65;;;;;;;;;;5138405;27;20053;-67
2023/10/06 09:12:00;;;;;;;52.03;11.90;;;;;;;;;;5120469;27;20075;-67
2023/10/06 09:14:28;;;;;;;45.60;12.10;;;;;;;;;;5139091;27;20047;-66
2023/10/06 09:16:57;;;;;;;47.72;13.38;;;;;;;;;;5103466;27;20099;-67
2023/10/06 09:19:23;;;;;;;43.78;11.32;;;;;;;;;;5119977;27;20039;-66
2023/10/06 09:22:05;;;;;;;42.17;10.70;;;;;;;;;;5138041;27;20047;-67
2023/10/06 09:24:31;;;;;;;43.15;11.70;;;;;;;;;;5138058;27;20126;-67
2023/10/06 09:26:58;;;;;;;35.40;10.68;;;;;;;;;;5119874;27;20051;-67
2023/10/06 09:29:36;;;;;;;35.20;10.82;;;;;;;;;;5137900;27;20055;-67
2023/10/06 09:32:04;;;;;;;37.45;11.45;;;;;;;;;;5137837;27;20471;-66
2023/10/06 09:34:32;;;;;;;35.75;10.90;;;;;;;;;;5138067;27;20047;-66
2023/10/06 09:37:17;;;;;;;48.60;10.98;;;;;;;;;;5138321;27;20054;-66
2023/10/06 09:39:45;;;;;;;39.40;10.25;;;;;;;;;;5138203;27;20074;-67
2023/10/06 09:42:11;;;;;;;;;;;;;;;;;;5138163;27;20050;-67
2023/10/06 09:44:37;;;;;;;36.00;10.70;;;;;;;;;;5119558;27;20243;-66
2023/10/06 09:47:08;;;;;;;33.72;9.93;;;;;;;;;;5137967;27;20051;-66
2023/10/06 09:49:37;;;;;;;34.15;10.23;;;;;;;;;;5137664;27;20112;-67
2023/10/06 09:52:05;;;;;;;37.08;10.63;;;;;;;;;;5119304;27;20078;-66
2023/10/06 09:54:31;;;;;;;42.55;10.45;;;;;;;;;;5102431;27;20486;-66
2023/10/06 09:56:59;;;;;;;32.30;9.50;;;;;;;;;;5119325;27;20135;-66
2023/10/06 09:59:26;;;;;;;37.05;9.15;;;;;;;;;;5138091;27;20045;-67
2023/10/06 10:01:52;;;;;;;37.92;9.73;;;;;;;;;;5118726;27;20051;-66
2023/10/06 10:04:18;;;;;;;38.50;8.50;;;;;;;;;;5119054;27;20047;-66
2023/10/06 10:06:45;;;;;;;36.63;8.15;;;;;;;;;;5137148;27;20099;-65
2023/10/06 10:09:15;;;;;;;39.58;8.43;;;;;;;;;;5119108;27;20043;-67
2023/10/06 10:11:44;;;;;;;30.85;7.90;;;;;;;;;;5136994;27;20049;-66
2023/10/06 10:14:10;;;;;;;29.48;8.13;;;;;;;;;;5137070;27;20122;-66
2023/10/06 10:16:53;;;;;;;33.90;7.77;;;;;;;;;;5119005;27;20047;-66
2023/10/06 10:19:26;;;;;;;33.75;8.02;;;;;;;;;;5137353;27;20054;-67
2023/10/06 10:21:54;;;;;;;30.30;7.85;;;;;;;;;;5136953;27;20096;-66
2023/10/06 10:24:21;;;;;;;36.65;8.07;;;;;;;;;;5101774;27;20082;-67
2023/10/06 10:26:47;;;;;;;;;;;;;;;;;;5119124;27;20051;-67
2023/10/06 10:29:15;;;;;;;29.00;7.43;;;;;;;;;;5119015;27;20248;-66
2023/10/06 10:31:46;;;;;;;26.42;7.63;;;;;;;;;;5118451;27;20395;-67
2023/10/06 10:34:20;;;;;;;30.52;7.00;;;;;;;;;;5136726;27;20047;-68
2023/10/06 10:36:48;;;;;;;36.28;7.72;;;;;;;;;;5136705;27;20050;-68
2023/10/06 10:39:16;;;;;;;35.38;7.93;;;;;;;;;;5136511;27;20043;-68
2023/10/06 10:41:42;;;;;;;23.83;7.20;;;;;;;;;;5136397;27;20043;-66
2023/10/06 10:44:11;;;;;;;27.33;7.17;;;;;;;;;;5136565;27;20049;-67
2023/10/06 10:46:44;;;;;;;31.33;7.30;;;;;;;;;;5136281;27;20062;-67
2023/10/06 10:49:13;;;;;;;27.67;7.13;;;;;;;;;;5136719;27;20054;-66
2023/10/06 10:51:59;;;;;;;27.10;7.25;;;;;;;;;;5136837;27;20080;-66
2023/10/06 10:54:28;;;;;;;31.23;6.10;;;;;;;;;;5136985;27;20111;-66
2023/10/06 10:57:02;;;;;;;31.83;6.28;;;;;;;;;;5136210;27;20043;-66
2023/10/06 10:59:47;;;;;;;32.20;6.75;;;;;;;;;;5136347;27;20047;-67
2023/10/06 11:02:15;;;;;;;23.73;6.25;;;;;;;;;;5101360;27;20095;-66
2023/10/06 11:04:43;;;;;;;28.00;6.75;;;;;;;;;;5136341;27;20086;-68
2023/10/06 11:07:18;;;;;;;27.15;6.45;;;;;;;;;;5101385;27;20074;-66
2023/10/06 11:09:47;;;;;;;31.13;7.07;;;;;;;;;;5136640;27;20047;-67
2023/10/06 11:12:24;;;;;;;22.20;6.30;;;;;;;;;;5135864;27;20394;-67
2023/10/06 11:14:51;;;;;;;27.50;5.68;;;;;;;;;;5136538;27;20382;-69
2023/10/06 11:17:20;;;;;;;26.70;6.30;;;;;;;;;;5101699;27;20386;-67
2023/10/06 11:19:47;;;;;;;23.70;6.68;;;;;;;;;;5135759;27;20042;-66
2023/10/06 11:22:19;;;;;;;29.10;6.55;;;;;;;;;;5117171;27;20486;-66
2023/10/06 11:24:46;;;;;;;34.47;6.95;;;;;;;;;;5135682;27;20047;-67
2023/10/06 11:27:16;;;;;;;32.95;6.90;;;;;;;;;;5135165;27;20051;-68
2023/10/06 11:29:42;;;;;;;36.70;7.60;;;;;;;;;;5135534;27;20147;-68
2023/10/06 11:32:08;;;;;;;36.58;7.85;;;;;;;;;;5135578;27;20043;-67
2023/10/06 11:34:35;;;;;;;37.77;8.50;;;;;;;;;;5117471;27;20505;-66
2023/10/06 11:37:02;;;;;;;26.95;6.50;;;;;;;;;;5135437;27;20277;-65
2023/10/06 11:39:31;;;;;;;35.65;6.80;;;;;;;;;;5118025;27;20393;-67
2023/10/06 11:42:16;;;;;;;25.38;6.70;;;;;;;;;;5118150;27;20074;-66
2023/10/06 11:44:42;;;;;;;32.63;6.15;;;;;;;;;;5135682;27;20039;-67
2023/10/06 11:47:08;;;;;;;34.67;7.40;;;;;;;;;;5135625;27;20051;-67
2023/10/06 11:49:34;;;;;;;34.90;7.33;;;;;;;;;;5135883;27;20285;-66
2023/10/06 11:52:01;;;;;;;34.80;8.02;;;;;;;;;;5135413;27;20035;-67
2023/10/06 11:54:29;;;;;;;33.65;6.55;;;;;;;;;;5135301;27;20051;-66
2023/10/06 11:56:57;;;;;;;33.22;7.50;;;;;;;;;;5134996;27;20402;-68
2023/10/06 11:59:24;;;;;;;28.75;7.20;;;;;;;;;;5116829;27;20046;-68
2023/10/06 12:01:50;;;;;;;28.35;6.40;;;;;;;;;;5135709;27;20119;-67
2023/10/06 12:04:23;;;;;;;31.40;6.90;;;;;;;;;;5116949;27;20485;-67
2023/10/06 12:06:51;;;;;;;25.73;6.60;;;;;;;;;;5134787;27;20329;-66
2023/10/06 12:09:24;;;;;;;36.47;7.47;;;;;;;;;;5100120;27;20043;-68
2023/10/06 12:11:50;;;;;;;30.65;7.68;;;;;;;;;;5116485;27;20043;-69
2023/10/06 12:14:16;;;;;;;29.37;6.90;;;;;;;;;;5116742;27;20364;-67
2023/10/06 12:16:44;;;;;;;33.05;7.05;;;;;;;;;;5135287;27;20316;-70
2023/10/06 12:19:14;;;;;;;28.35;6.63;;;;;;;;;;5116482;27;20047;-68
2023/10/06 12:21:40;;;;;;;35.25;7.25;;;;;;;;;;5116403;27;20043;-68
2023/10/06 12:24:11;;;;;;;40.80;8.15;;;;;;;;;;5099474;27;20471;-67
2023/10/06 12:26:38;;;;;;;32.45;7.70;;;;;;;;;;5099757;27;20039;-67
2023/10/06 12:29:04;;;;;;;30.23;7.00;;;;;;;;;;5134235;27;20455;-68
2023/10/06 12:31:30;;;;;;;27.73;7.37;;;;;;;;;;5135428;27;20122;-67
2023/10/06 12:33:56;;;;;;;37.63;8.27;;;;;;;;;;5116246;27;20304;-67
2023/10/06 12:36:23;;;;;;;31.65;7.18;;;;;;;;;;5099694;27;20045;-67
2023/10/06 12:38:49;;;;;;;33.03;7.28;;;;;;;;;;5134282;27;20050;-67
2023/10/06 12:41:17;;;;;;;29.85;7.38;;;;;;;;;;5116121;27;20086;-68
2023/10/06 12:43:47;;;;;;;31.85;7.55;;;;;;;;;;5134704;27;20047;-66
2023/10/06 12:46:13;;;;;;;26.77;7.43;;;;;;;;;;5116073;28;20051;-68
2023/10/06 12:48:39;;;;;;;29.60;6.60;;;;;;;;;;5116242;28;20043;-71
2023/10/06 12:51:06;;;;;;;29.55;7.55;;;;;;;;;;5116849;27;20424;-68
2023/10/06 12:53:35;;;;;;;29.48;6.93;;;;;;;;;;5115998;27;20130;-69
2023/10/06 12:56:02;;;;;;;29.15;6.82;;;;;;;;;;5116579;28;20047;-67
2023/10/06 12:58:28;;;;;;;27.08;6.40;;;;;;;;;;5134390;28;20078;-68
2023/10/06 13:00:54;;;;;;;23.38;6.55;;;;;;;;;;5116854;28;20098;-68
2023/10/06 13:03:21;;;;;;;34.13;6.73;;;;;;;;;;5134834;28;20042;-67
2023/10/06 13:05:48;;;;;;;28.90;7.40;;;;;;;;;;5134181;28;20369;-67
2023/10/06 13:08:20;;;;;;;;;;;;;;;;;;5116315;28;20096;-67
2023/10/06 13:10:47;;;;;;;42.92;7.13;;;;;;;;;;5134691;28;19923;-67
2023/10/06 13:13:16;;;;;;;24.70;6.70;;;;;;;;;;5134223;28;20047;-67
2023/10/06 13:15:42;;;;;;;30.92;6.53;;;;;;;;;;5134101;28;20108;-66
2023/10/06 13:18:08;;;;;;;36.58;7.35;;;;;;;;;;5115952;28;20050;-67
2023/10/06 13:20:41;;;;;;;24.37;6.10;;;;;;;;;;5134928;28;20039;-67
2023/10/06 13:23:08;;;;;;;28.33;6.97;;;;;;;;;;5135276;28;20294;-68
2023/10/06 13:25:37;;;;;;;31.40;6.43;;;;;;;;;;5115996;28;20487;-68
2023/10/06 13:28:03;;;;;;;26.95;7.00;;;;;;;;;;5133896;28;20134;-68
2023/10/06 13:30:32;;;;;;;25.63;6.85;;;;;;;;;;5133965;28;20092;-67
2023/10/06 13:32:59;;;;;;;29.83;7.68;;;;;;;;;;5133758;28;20043;-67
2023/10/06 13:35:26;;;;;;;28.63;7.47;;;;;;;;;;5133871;28;20051;-67
2023/10/06 13:37:57;;;;;;;31.92;7.57;;;;;;;;;;5133970;28;20054;-68
2023/10/06 13:40:23;;;;;;;27.85;7.38;;;;;;;;;;5134548;28;20506;-68
2023/10/06 13:42:50;;;;;;;38.17;7.75;;;;;;;;;;5116689;28;20080;-68
2023/10/06 13:45:20;;;;;;;;;;;;;;;;;;5133975;28;20043;-66
2023/10/06 13:47:55;;;;;;;27.80;6.00;;;;;;;;;;5133513;28;20389;-67
2023/10/06 13:50:22;;;;;;;43.65;7.35;;;;;;;;;;5135696;27;20092;-68
2023/10/06 13:52:51;;;;;;;;;;;;;;;;;;5119821;27;20068;-67
2023/10/06 13:55:18;;;;;;;27.80;6.85;;;;;;;;;;5119388;27;19974;-67
2023/10/06 13:57:45;;;;;;;32.55;6.70;;;;;;;;;;5119505;27;20051;-70
2023/10/06 14:00:19;;;;;;;36.63;7.07;;;;;;;;;;5137812;27;20047;-67
2023/10/06 14:02:49;;;;;;;36.30;7.97;;;;;;;;;;5137571;27;20089;-67
2023/10/06 14:05:16;;;;;;;27.40;7.20;;;;;;;;;;5137314;27;20039;-65
2023/10/06 14:07:44;;;;;;;33.42;7.38;;;;;;;;;;5137316;27;20043;-66
2023/10/06 14:10:13;;;;;;;29.92;6.13;;;;;;;;;;5119990;27;20059;-68
2023/10/06 14:12:43;;;;;;;29.38;6.57;;;;;;;;;;5136950;27;20483;-67
2023/10/06 14:15:22;;;;;;;29.88;6.65;;;;;;;;;;5101953;27;20398;-66
2023/10/06 14:17:49;;;;;;;30.33;7.40;;;;;;;;;;5119024;27;20055;-67
2023/10/06 14:20:23;;;;;;;26.92;6.13;;;;;;;;;;5137263;27;20107;-66
2023/10/06 14:22:56;;;;;;;39.85;6.28;;;;;;;;;;5137176;27;20039;-68
2023/10/06 14:25:26;;;;;;;31.27;5.72;;;;;;;;;;5136903;27;20051;-67
2023/10/06 14:27:52;;;;;;;33.38;6.18;;;;;;;;;;5137719;27;20139;-67
2023/10/06 14:30:22;;;;;;;28.70;6.03;;;;;;;;;;5118591;27;20110;-67
2023/10/06 14:35:45;;;;;;;34.20;6.50;;;;;;;;;;5136999;27;20450;-67
2023/10/06 14:45:57;;;;;;;28.90;5.82;;;;;;;;;;5136937;27;20047;-67
2023/10/06 14:46:34;;;;;;;30.33;6.13;;;;;;;;;;5136404;27;20058;-68
2023/10/06 14:49:03;;;;;;;28.88;6.35;;;;;;;;;;5136972;27;20047;-67